sensor_id;sensor_type;location;lat;lon;timestamp;temperature;humidity
14252;DHT22;7210;51.502;10.722;2022-12-24T00:01:03;8.40;1.00
14252;DHT22;7210;51.502;10.722;2022-12-24T00:03:32;8.40;1.00
14252;DHT22;7210;51.502;10.722;2022-12-24T00:06:03;8.40;1.00
14252;DHT22;7210;51.502;10.722;2022-12-24T00:08:31;8.40;1.00
14252;DHT22;7210;51.502;10.722;2022-12-24T00:10:58;8.40;1.00
14252;DHT22;7210;51.502;10.722;2022-12-24T00:13:30;8.30;1.00
14252;DHT22;7210;51.502;10.722;2022-12-24T00:15:58;8.20;1.00
14252;DHT22;7210;51.502;10.722;2022-12-24T00:18:25;8.30;1.00
14252;DHT22;7210;51.502;10.722;2022-12-24T00:20:52;8.20;1.00
14252;DHT22;7210;51.502;10.722;2022-12-24T00:23:20;8.20;1.00
14252;DHT22;7210;51.502;10.722;2022-12-24T00:25:48;8.20;1.00
14252;DHT22;7210;51.502;10.722;2022-12-24T00:28:15;8.20;1.00
14252;DHT22;7210;51.502;10.722;2022-12-24T00:30:44;8.20;1.00
14252;DHT22;7210;51.502;10.722;2022-12-24T00:33:11;8.20;1.00
14252;DHT22;7210;51.502;10.722;2022-12-24T00:35:39;8.30;1.00
14252;DHT22;7210;51.502;10.722;2022-12-24T00:38:07;8.30;1.00
14252;DHT22;7210;51.502;10.722;2022-12-24T00:40:34;8.40;1.00
14252;DHT22;7210;51.502;10.722;2022-12-24T00:43:02;8.40;1.00
14252;DHT22;7210;51.502;10.722;2022-12-24T00:45:29;8.50;1.00
14252;DHT22;7210;51.502;10.722;2022-12-24T00:47:58;8.40;1.00
14252;DHT22;7210;51.502;10.722;2022-12-24T00:50:25;8.50;1.00
14252;DHT22;7210;51.502;10.722;2022-12-24T00:52:52;8.60;1.00
14252;DHT22;7210;51.502;10.722;2022-12-24T00:55:19;8.50;1.00
14252;DHT22;7210;51.502;10.722;2022-12-24T00:57:46;8.50;1.00
14252;DHT22;7210;51.502;10.722;2022-12-24T01:00:14;8.60;1.00
14252;DHT22;7210;51.502;10.722;2022-12-24T01:02:47;8.60;1.00
14252;DHT22;7210;51.502;10.722;2022-12-24T01:05:15;8.60;1.00
14252;DHT22;7210;51.502;10.722;2022-12-24T01:07:46;8.70;1.00
14252;DHT22;7210;51.502;10.722;2022-12-24T01:10:17;8.80;1.00
14252;DHT22;7210;51.502;10.722;2022-12-24T01:13:00;8.80;1.00
14252;DHT22;7210;51.502;10.722;2022-12-24T01:15:29;8.90;7.80
14252;DHT22;7210;51.502;10.722;2022-12-24T01:17:56;8.90;17.10
14252;DHT22;7210;51.502;10.722;2022-12-24T01:20:25;8.90;15.50
14252;DHT22;7210;51.502;10.722;2022-12-24T01:22:56;8.90;21.90
14252;DHT22;7210;51.502;10.722;2022-12-24T01:25:23;8.90;27.10
14252;DHT22;7210;51.502;10.722;2022-12-24T01:27:50;8.90;29.60
14252;DHT22;7210;51.502;10.722;2022-12-24T01:30:17;8.90;30.60
14252;DHT22;7210;51.502;10.722;2022-12-24T01:32:44;8.90;38.00
14252;DHT22;7210;51.502;10.722;2022-12-24T01:35:12;9.00;50.40
14252;DHT22;7210;51.502;10.722;2022-12-24T01:37:41;8.90;54.70
14252;DHT22;7210;51.502;10.722;2022-12-24T01:40:11;8.90;60.50
14252;DHT22;7210;51.502;10.722;2022-12-24T01:42:59;9.10;86.00
14252;DHT22;7210;51.502;10.722;2022-12-24T01:45:47;9.00;91.20
14252;DHT22;7210;51.502;10.722;2022-12-24T01:48:21;9.00;80.10
14252;DHT22;7210;51.502;10.722;2022-12-24T01:50:57;8.90;65.90
14252;DHT22;7210;51.502;10.722;2022-12-24T01:53:28;8.90;62.80
14252;DHT22;7210;51.502;10.722;2022-12-24T01:55:58;8.80;54.90
14252;DHT22;7210;51.502;10.722;2022-12-24T01:58:29;8.80;51.20
14252;DHT22;7210;51.502;10.722;2022-12-24T02:00:58;8.90;71.80
14252;DHT22;7210;51.502;10.722;2022-12-24T02:03:25;9.00;99.90
14252;DHT22;7210;51.502;10.722;2022-12-24T02:05:54;9.10;99.90
14252;DHT22;7210;51.502;10.722;2022-12-24T02:08:24;9.10;99.90
14252;DHT22;7210;51.502;10.722;2022-12-24T02:11:10;9.20;99.90
14252;DHT22;7210;51.502;10.722;2022-12-24T02:13:39;9.20;99.90
14252;DHT22;7210;51.502;10.722;2022-12-24T02:16:24;9.10;99.90
14252;DHT22;7210;51.502;10.722;2022-12-24T02:19:21;9.20;99.90
14252;DHT22;7210;51.502;10.722;2022-12-24T02:22:10;9.10;99.90
14252;DHT22;7210;51.502;10.722;2022-12-24T02:25:16;9.10;99.90
14252;DHT22;7210;51.502;10.722;2022-12-24T02:28:00;9.00;99.90
14252;DHT22;7210;51.502;10.722;2022-12-24T02:30:42;8.90;99.90
14252;DHT22;7210;51.502;10.722;2022-12-24T02:33:23;8.80;99.90
14252;DHT22;7210;51.502;10.722;2022-12-24T02:35:58;8.80;99.90
14252;DHT22;7210;51.502;10.722;2022-12-24T02:38:36;8.70;99.90
14252;DHT22;7210;51.502;10.722;2022-12-24T02:41:13;8.80;99.90
14252;DHT22;7210;51.502;10.722;2022-12-24T02:43:44;8.80;99.90
14252;DHT22;7210;51.502;10.722;2022-12-24T02:46:18;8.80;99.90
14252;DHT22;7210;51.502;10.722;2022-12-24T02:48:48;8.90;99.90
14252;DHT22;7210;51.502;10.722;2022-12-24T02:51:22;9.00;99.90
14252;DHT22;7210;51.502;10.722;2022-12-24T02:53:50;8.90;99.90
14252;DHT22;7210;51.502;10.722;2022-12-24T02:56:30;9.00;99.90
14252;DHT22;7210;51.502;10.722;2022-12-24T02:59:19;8.90;99.90
14252;DHT22;7210;51.502;10.722;2022-12-24T03:02:08;8.90;99.90
14252;DHT22;7210;51.502;10.722;2022-12-24T03:07:47;8.60;99.90
14252;DHT22;7210;51.502;10.722;2022-12-24T03:10:27;8.70;99.90
14252;DHT22;7210;51.502;10.722;2022-12-24T03:13:03;8.70;99.90
14252;DHT22;7210;51.502;10.722;2022-12-24T03:18:28;8.70;99.90
14252;DHT22;7210;51.502;10.722;2022-12-24T03:21:01;8.60;99.90
14252;DHT22;7210;51.502;10.722;2022-12-24T03:23:34;8.70;99.90
14252;DHT22;7210;51.502;10.722;2022-12-24T03:26:05;8.80;99.90
14252;DHT22;7210;51.502;10.722;2022-12-24T03:28:40;8.80;99.90
14252;DHT22;7210;51.502;10.722;2022-12-24T03:31:08;8.80;99.90
14252;DHT22;7210;51.502;10.722;2022-12-24T03:33:38;8.70;99.90
14252;DHT22;7210;51.502;10.722;2022-12-24T03:36:06;8.80;99.90
14252;DHT22;7210;51.502;10.722;2022-12-24T03:38:34;8.70;99.90
14252;DHT22;7210;51.502;10.722;2022-12-24T03:41:02;8.70;99.90
14252;DHT22;7210;51.502;10.722;2022-12-24T03:43:30;8.70;99.90
14252;DHT22;7210;51.502;10.722;2022-12-24T03:45:57;8.60;99.90
14252;DHT22;7210;51.502;10.722;2022-12-24T03:48:28;8.60;99.90
14252;DHT22;7210;51.502;10.722;2022-12-24T03:50:57;8.60;99.90
14252;DHT22;7210;51.502;10.722;2022-12-24T03:53:24;8.60;99.90
14252;DHT22;7210;51.502;10.722;2022-12-24T03:55:51;8.50;99.90
14252;DHT22;7210;51.502;10.722;2022-12-24T03:58:19;8.50;99.90
14252;DHT22;7210;51.502;10.722;2022-12-24T04:00:46;8.50;99.90
14252;DHT22;7210;51.502;10.722;2022-12-24T04:03:13;8.50;99.90
14252;DHT22;7210;51.502;10.722;2022-12-24T04:05:41;8.60;99.90
14252;DHT22;7210;51.502;10.722;2022-12-24T04:08:09;8.50;99.90
14252;DHT22;7210;51.502;10.722;2022-12-24T04:10:36;8.50;99.90
14252;DHT22;7210;51.502;10.722;2022-12-24T04:13:03;8.40;99.90
14252;DHT22;7210;51.502;10.722;2022-12-24T04:15:31;8.50;99.90
14252;DHT22;7210;51.502;10.722;2022-12-24T04:17:58;8.50;99.90
14252;DHT22;7210;51.502;10.722;2022-12-24T04:20:25;8.50;99.90
14252;DHT22;7210;51.502;10.722;2022-12-24T04:22:52;8.40;99.90
14252;DHT22;7210;51.502;10.722;2022-12-24T04:25:21;8.30;99.90
14252;DHT22;7210;51.502;10.722;2022-12-24T04:27:48;8.30;99.90
14252;DHT22;7210;51.502;10.722;2022-12-24T04:30:15;8.20;99.90
14252;DHT22;7210;51.502;10.722;2022-12-24T04:32:45;8.30;99.90
14252;DHT22;7210;51.502;10.722;2022-12-24T04:35:15;8.20;99.90
14252;DHT22;7210;51.502;10.722;2022-12-24T04:37:43;8.20;99.90
14252;DHT22;7210;51.502;10.722;2022-12-24T04:40:10;8.20;99.90
14252;DHT22;7210;51.502;10.722;2022-12-24T04:42:39;8.30;99.90
14252;DHT22;7210;51.502;10.722;2022-12-24T04:45:07;8.40;99.90
14252;DHT22;7210;51.502;10.722;2022-12-24T04:47:39;8.40;99.90
14252;DHT22;7210;51.502;10.722;2022-12-24T04:50:08;8.40;99.90
14252;DHT22;7210;51.502;10.722;2022-12-24T04:52:36;8.40;99.90
14252;DHT22;7210;51.502;10.722;2022-12-24T04:55:04;8.40;99.90
14252;DHT22;7210;51.502;10.722;2022-12-24T04:57:32;8.40;99.90
14252;DHT22;7210;51.502;10.722;2022-12-24T05:00:04;8.30;99.90
14252;DHT22;7210;51.502;10.722;2022-12-24T05:02:33;8.30;99.90
14252;DHT22;7210;51.502;10.722;2022-12-24T05:05:00;8.30;99.90
14252;DHT22;7210;51.502;10.722;2022-12-24T05:07:27;8.30;99.90
14252;DHT22;7210;51.502;10.722;2022-12-24T05:09:57;8.30;99.90
14252;DHT22;7210;51.502;10.722;2022-12-24T05:12:24;8.30;99.90
14252;DHT22;7210;51.502;10.722;2022-12-24T05:14:51;8.30;99.90
14252;DHT22;7210;51.502;10.722;2022-12-24T05:17:20;8.20;99.90
14252;DHT22;7210;51.502;10.722;2022-12-24T05:19:48;8.20;99.90
14252;DHT22;7210;51.502;10.722;2022-12-24T05:22:15;8.30;99.90
14252;DHT22;7210;51.502;10.722;2022-12-24T05:25:00;8.30;99.90
14252;DHT22;7210;51.502;10.722;2022-12-24T05:27:45;8.30;99.90
14252;DHT22;7210;51.502;10.722;2022-12-24T05:30:12;8.40;99.90
14252;DHT22;7210;51.502;10.722;2022-12-24T05:32:41;8.40;99.90
14252;DHT22;7210;51.502;10.722;2022-12-24T05:35:08;8.40;99.90
14252;DHT22;7210;51.502;10.722;2022-12-24T05:37:35;8.40;99.90
14252;DHT22;7210;51.502;10.722;2022-12-24T05:40:03;8.40;99.90
14252;DHT22;7210;51.502;10.722;2022-12-24T05:42:33;8.40;99.90
14252;DHT22;7210;51.502;10.722;2022-12-24T05:45:00;8.40;99.90
14252;DHT22;7210;51.502;10.722;2022-12-24T05:47:28;8.40;99.90
14252;DHT22;7210;51.502;10.722;2022-12-24T05:49:56;8.40;99.90
14252;DHT22;7210;51.502;10.722;2022-12-24T05:52:24;8.40;99.90
14252;DHT22;7210;51.502;10.722;2022-12-24T05:54:51;8.30;99.90
14252;DHT22;7210;51.502;10.722;2022-12-24T05:57:18;8.30;99.90
14252;DHT22;7210;51.502;10.722;2022-12-24T05:59:51;8.30;99.90
14252;DHT22;7210;51.502;10.722;2022-12-24T06:02:18;8.30;99.90
14252;DHT22;7210;51.502;10.722;2022-12-24T06:04:45;8.30;99.90
14252;DHT22;7210;51.502;10.722;2022-12-24T06:07:14;8.30;99.90
14252;DHT22;7210;51.502;10.722;2022-12-24T06:09:41;8.20;99.90
14252;DHT22;7210;51.502;10.722;2022-12-24T06:12:08;8.30;99.90
14252;DHT22;7210;51.502;10.722;2022-12-24T06:14:35;8.20;99.90
14252;DHT22;7210;51.502;10.722;2022-12-24T06:17:02;8.10;99.90
14252;DHT22;7210;51.502;10.722;2022-12-24T06:19:30;8.10;99.90
14252;DHT22;7210;51.502;10.722;2022-12-24T06:21:57;8.00;99.90
14252;DHT22;7210;51.502;10.722;2022-12-24T06:24:25;7.90;99.90
14252;DHT22;7210;51.502;10.722;2022-12-24T06:26:52;7.80;99.90
14252;DHT22;7210;51.502;10.722;2022-12-24T06:29:20;7.80;99.90
14252;DHT22;7210;51.502;10.722;2022-12-24T06:31:47;7.70;99.90
14252;DHT22;7210;51.502;10.722;2022-12-24T06:34:14;7.70;99.90
14252;DHT22;7210;51.502;10.722;2022-12-24T06:36:41;7.60;99.90
14252;DHT22;7210;51.502;10.722;2022-12-24T06:39:08;7.60;99.90
14252;DHT22;7210;51.502;10.722;2022-12-24T06:41:37;7.60;99.90
14252;DHT22;7210;51.502;10.722;2022-12-24T06:44:04;7.60;99.90
14252;DHT22;7210;51.502;10.722;2022-12-24T06:46:35;7.60;99.90
14252;DHT22;7210;51.502;10.722;2022-12-24T06:49:02;7.50;99.90
14252;DHT22;7210;51.502;10.722;2022-12-24T06:51:29;7.50;99.90
14252;DHT22;7210;51.502;10.722;2022-12-24T06:53:56;7.40;99.90
14252;DHT22;7210;51.502;10.722;2022-12-24T06:56:27;7.40;99.90
14252;DHT22;7210;51.502;10.722;2022-12-24T06:58:56;7.40;99.90
14252;DHT22;7210;51.502;10.722;2022-12-24T07:01:23;7.20;99.90
14252;DHT22;7210;51.502;10.722;2022-12-24T07:03:50;7.10;99.90
14252;DHT22;7210;51.502;10.722;2022-12-24T07:06:20;7.00;99.90
14252;DHT22;7210;51.502;10.722;2022-12-24T07:08:51;6.90;99.90
14252;DHT22;7210;51.502;10.722;2022-12-24T07:11:27;6.90;99.90
14252;DHT22;7210;51.502;10.722;2022-12-24T07:13:56;6.90;99.90
14252;DHT22;7210;51.502;10.722;2022-12-24T07:16:23;6.90;99.90
14252;DHT22;7210;51.502;10.722;2022-12-24T07:18:50;6.90;99.90
14252;DHT22;7210;51.502;10.722;2022-12-24T07:21:18;6.90;99.90
14252;DHT22;7210;51.502;10.722;2022-12-24T07:23:46;7.00;99.90
14252;DHT22;7210;51.502;10.722;2022-12-24T07:26:13;7.00;99.90
14252;DHT22;7210;51.502;10.722;2022-12-24T07:28:45;7.00;99.90
14252;DHT22;7210;51.502;10.722;2022-12-24T07:31:14;7.00;99.90
14252;DHT22;7210;51.502;10.722;2022-12-24T07:33:41;7.10;99.90
14252;DHT22;7210;51.502;10.722;2022-12-24T07:36:12;7.10;99.90
14252;DHT22;7210;51.502;10.722;2022-12-24T07:38:43;7.10;99.90
14252;DHT22;7210;51.502;10.722;2022-12-24T07:41:16;7.20;99.90
14252;DHT22;7210;51.502;10.722;2022-12-24T07:43:43;7.20;99.90
14252;DHT22;7210;51.502;10.722;2022-12-24T07:46:10;7.20;99.90
14252;DHT22;7210;51.502;10.722;2022-12-24T07:48:39;7.20;99.90
14252;DHT22;7210;51.502;10.722;2022-12-24T07:51:06;7.20;99.90
14252;DHT22;7210;51.502;10.722;2022-12-24T07:53:33;7.20;99.90
14252;DHT22;7210;51.502;10.722;2022-12-24T07:56:01;7.20;99.90
14252;DHT22;7210;51.502;10.722;2022-12-24T07:58:33;7.30;99.90
14252;DHT22;7210;51.502;10.722;2022-12-24T08:01:00;7.30;99.90
14252;DHT22;7210;51.502;10.722;2022-12-24T08:03:27;7.40;99.90
14252;DHT22;7210;51.502;10.722;2022-12-24T08:05:56;7.40;99.90
14252;DHT22;7210;51.502;10.722;2022-12-24T08:08:23;7.50;99.90
14252;DHT22;7210;51.502;10.722;2022-12-24T08:10:51;7.40;99.90
14252;DHT22;7210;51.502;10.722;2022-12-24T08:13:18;7.50;99.90
14252;DHT22;7210;51.502;10.722;2022-12-24T08:15:46;7.60;99.90
14252;DHT22;7210;51.502;10.722;2022-12-24T08:18:13;7.50;99.90
14252;DHT22;7210;51.502;10.722;2022-12-24T08:20:46;7.50;99.90
14252;DHT22;7210;51.502;10.722;2022-12-24T08:23:14;7.50;99.90
14252;DHT22;7210;51.502;10.722;2022-12-24T08:25:42;7.40;99.90
14252;DHT22;7210;51.502;10.722;2022-12-24T08:28:11;7.50;99.90
14252;DHT22;7210;51.502;10.722;2022-12-24T08:30:38;7.40;99.90
14252;DHT22;7210;51.502;10.722;2022-12-24T08:33:06;7.40;99.90
14252;DHT22;7210;51.502;10.722;2022-12-24T08:35:33;7.40;99.90
14252;DHT22;7210;51.502;10.722;2022-12-24T08:38:00;7.40;99.90
14252;DHT22;7210;51.502;10.722;2022-12-24T08:40:29;7.40;99.90
14252;DHT22;7210;51.502;10.722;2022-12-24T08:42:56;7.40;99.90
14252;DHT22;7210;51.502;10.722;2022-12-24T08:45:23;7.40;99.90
14252;DHT22;7210;51.502;10.722;2022-12-24T08:47:50;7.30;99.90
14252;DHT22;7210;51.502;10.722;2022-12-24T08:50:18;7.30;99.90
14252;DHT22;7210;51.502;10.722;2022-12-24T08:52:45;7.40;99.90
14252;DHT22;7210;51.502;10.722;2022-12-24T08:55:12;7.50;99.90
14252;DHT22;7210;51.502;10.722;2022-12-24T08:57:40;7.30;99.90
14252;DHT22;7210;51.502;10.722;2022-12-24T09:00:10;7.40;99.90
14252;DHT22;7210;51.502;10.722;2022-12-24T09:02:45;7.50;99.90
14252;DHT22;7210;51.502;10.722;2022-12-24T09:05:12;7.50;99.90
14252;DHT22;7210;51.502;10.722;2022-12-24T09:07:40;7.50;99.90
14252;DHT22;7210;51.502;10.722;2022-12-24T09:10:08;7.60;99.90
14252;DHT22;7210;51.502;10.722;2022-12-24T09:12:36;7.60;99.90
14252;DHT22;7210;51.502;10.722;2022-12-24T09:15:11;7.60;99.90
14252;DHT22;7210;51.502;10.722;2022-12-24T09:17:39;7.70;99.90
14252;DHT22;7210;51.502;10.722;2022-12-24T09:20:07;7.70;99.90
14252;DHT22;7210;51.502;10.722;2022-12-24T09:22:38;7.70;99.90
14252;DHT22;7210;51.502;10.722;2022-12-24T09:25:06;7.80;99.90
14252;DHT22;7210;51.502;10.722;2022-12-24T09:27:35;7.80;99.90
14252;DHT22;7210;51.502;10.722;2022-12-24T09:30:04;7.80;99.90
14252;DHT22;7210;51.502;10.722;2022-12-24T09:32:33;7.90;99.90
14252;DHT22;7210;51.502;10.722;2022-12-24T09:35:01;8.00;99.90
14252;DHT22;7210;51.502;10.722;2022-12-24T09:37:28;8.00;99.90
14252;DHT22;7210;51.502;10.722;2022-12-24T09:39:55;8.00;99.90
14252;DHT22;7210;51.502;10.722;2022-12-24T09:42:31;8.00;99.90
14252;DHT22;7210;51.502;10.722;2022-12-24T09:45:12;8.10;99.90
14252;DHT22;7210;51.502;10.722;2022-12-24T09:47:48;8.10;99.90
14252;DHT22;7210;51.502;10.722;2022-12-24T09:50:28;8.20;99.90
14252;DHT22;7210;51.502;10.722;2022-12-24T09:53:04;8.10;99.90
14252;DHT22;7210;51.502;10.722;2022-12-24T09:55:43;8.20;99.90
14252;DHT22;7210;51.502;10.722;2022-12-24T09:58:20;8.30;99.90
14252;DHT22;7210;51.502;10.722;2022-12-24T10:00:52;8.30;99.90
14252;DHT22;7210;51.502;10.722;2022-12-24T10:03:23;8.50;99.90
14252;DHT22;7210;51.502;10.722;2022-12-24T10:05:59;8.70;99.90
14252;DHT22;7210;51.502;10.722;2022-12-24T10:08:38;8.80;99.90
14252;DHT22;7210;51.502;10.722;2022-12-24T10:11:20;8.80;99.90
14252;DHT22;7210;51.502;10.722;2022-12-24T10:14:03;8.80;99.90
14252;DHT22;7210;51.502;10.722;2022-12-24T10:16:50;8.80;99.90
14252;DHT22;7210;51.502;10.722;2022-12-24T10:19:32;8.80;99.90
14252;DHT22;7210;51.502;10.722;2022-12-24T10:22:15;8.80;99.90
14252;DHT22;7210;51.502;10.722;2022-12-24T10:24:54;8.80;99.90
14252;DHT22;7210;51.502;10.722;2022-12-24T10:27:31;8.90;99.90
14252;DHT22;7210;51.502;10.722;2022-12-24T10:30:11;8.80;99.90
14252;DHT22;7210;51.502;10.722;2022-12-24T10:32:41;8.80;99.90
14252;DHT22;7210;51.502;10.722;2022-12-24T10:35:18;8.90;99.90
14252;DHT22;7210;51.502;10.722;2022-12-24T10:37:50;8.90;99.90
14252;DHT22;7210;51.502;10.722;2022-12-24T10:40:25;9.00;99.90
14252;DHT22;7210;51.502;10.722;2022-12-24T10:43:10;9.10;99.90
14252;DHT22;7210;51.502;10.722;2022-12-24T10:45:45;9.00;99.90
14252;DHT22;7210;51.502;10.722;2022-12-24T10:48:21;8.90;99.90
14252;DHT22;7210;51.502;10.722;2022-12-24T10:51:01;8.90;99.90
14252;DHT22;7210;51.502;10.722;2022-12-24T10:53:42;9.00;99.90
14252;DHT22;7210;51.502;10.722;2022-12-24T10:56:27;9.00;99.90
14252;DHT22;7210;51.502;10.722;2022-12-24T10:59:23;9.10;99.90
14252;DHT22;7210;51.502;10.722;2022-12-24T11:01:54;9.10;99.90
14252;DHT22;7210;51.502;10.722;2022-12-24T11:04:24;9.20;99.90
14252;DHT22;7210;51.502;10.722;2022-12-24T11:07:00;9.20;99.90
14252;DHT22;7210;51.502;10.722;2022-12-24T11:09:39;9.30;99.90
14252;DHT22;7210;51.502;10.722;2022-12-24T11:12:18;9.40;99.90
14252;DHT22;7210;51.502;10.722;2022-12-24T11:14:52;9.50;99.90
14252;DHT22;7210;51.502;10.722;2022-12-24T11:17:40;9.60;99.90
14252;DHT22;7210;51.502;10.722;2022-12-24T11:20:16;9.60;99.90
14252;DHT22;7210;51.502;10.722;2022-12-24T11:22:49;9.60;99.90
14252;DHT22;7210;51.502;10.722;2022-12-24T11:25:19;9.60;99.90
14252;DHT22;7210;51.502;10.722;2022-12-24T11:27:49;9.60;99.90
14252;DHT22;7210;51.502;10.722;2022-12-24T11:30:27;9.60;99.90
14252;DHT22;7210;51.502;10.722;2022-12-24T11:33:18;9.60;99.90
14252;DHT22;7210;51.502;10.722;2022-12-24T11:35:53;9.60;99.90
14252;DHT22;7210;51.502;10.722;2022-12-24T11:38:26;9.50;99.90
14252;DHT22;7210;51.502;10.722;2022-12-24T11:40:59;9.60;99.90
14252;DHT22;7210;51.502;10.722;2022-12-24T11:43:37;9.60;99.90
14252;DHT22;7210;51.502;10.722;2022-12-24T11:46:35;9.60;99.90
14252;DHT22;7210;51.502;10.722;2022-12-24T11:49:12;9.70;99.90
14252;DHT22;7210;51.502;10.722;2022-12-24T11:55:19;9.60;99.90
14252;DHT22;7210;51.502;10.722;2022-12-24T11:59:25;9.70;99.90
14252;DHT22;7210;51.502;10.722;2022-12-24T12:01:59;9.80;99.90
14252;DHT22;7210;51.502;10.722;2022-12-24T12:04:41;9.90;99.90
14252;DHT22;7210;51.502;10.722;2022-12-24T12:07:14;9.80;99.90
14252;DHT22;7210;51.502;10.722;2022-12-24T12:09:48;9.80;99.90
14252;DHT22;7210;51.502;10.722;2022-12-24T12:12:18;9.70;99.90
14252;DHT22;7210;51.502;10.722;2022-12-24T12:14:52;9.70;99.90
14252;DHT22;7210;51.502;10.722;2022-12-24T12:17:28;9.70;99.90
14252;DHT22;7210;51.502;10.722;2022-12-24T12:19:59;9.70;99.90
14252;DHT22;7210;51.502;10.722;2022-12-24T12:22:31;9.80;99.90
14252;DHT22;7210;51.502;10.722;2022-12-24T12:25:03;9.90;99.90
14252;DHT22;7210;51.502;10.722;2022-12-24T12:27:36;9.90;99.90
14252;DHT22;7210;51.502;10.722;2022-12-24T12:30:11;10.00;99.90
14252;DHT22;7210;51.502;10.722;2022-12-24T12:32:46;10.00;99.90
14252;DHT22;7210;51.502;10.722;2022-12-24T12:35:20;10.00;99.90
14252;DHT22;7210;51.502;10.722;2022-12-24T12:37:55;10.10;99.90
14252;DHT22;7210;51.502;10.722;2022-12-24T12:43:32;10.20;99.90
14252;DHT22;7210;51.502;10.722;2022-12-24T12:46:11;10.20;99.90
14252;DHT22;7210;51.502;10.722;2022-12-24T12:49:02;10.30;99.90
14252;DHT22;7210;51.502;10.722;2022-12-24T12:51:39;10.20;99.90
14252;DHT22;7210;51.502;10.722;2022-12-24T12:57:07;10.10;99.90
14252;DHT22;7210;51.502;10.722;2022-12-24T12:59:40;10.00;99.90
14252;DHT22;7210;51.502;10.722;2022-12-24T13:02:35;10.10;99.90
14252;DHT22;7210;51.502;10.722;2022-12-24T13:05:49;10.00;99.90
14252;DHT22;7210;51.502;10.722;2022-12-24T13:08:55;10.00;99.90
14252;DHT22;7210;51.502;10.722;2022-12-24T13:11:38;9.90;99.90
14252;DHT22;7210;51.502;10.722;2022-12-24T13:14:38;10.00;99.90
14252;DHT22;7210;51.502;10.722;2022-12-24T13:20:36;9.80;99.90
14252;DHT22;7210;51.502;10.722;2022-12-24T13:23:12;9.80;99.90
14252;DHT22;7210;51.502;10.722;2022-12-24T13:25:42;9.90;99.90
14252;DHT22;7210;51.502;10.722;2022-12-24T13:28:30;9.90;99.90
14252;DHT22;7210;51.502;10.722;2022-12-24T13:31:22;9.90;99.90
14252;DHT22;7210;51.502;10.722;2022-12-24T13:33:53;9.90;99.90
14252;DHT22;7210;51.502;10.722;2022-12-24T13:36:21;9.90;99.90
14252;DHT22;7210;51.502;10.722;2022-12-24T13:38:50;9.90;99.90
14252;DHT22;7210;51.502;10.722;2022-12-24T13:44:28;10.00;99.90
14252;DHT22;7210;51.502;10.722;2022-12-24T13:47:20;10.10;99.90
14252;DHT22;7210;51.502;10.722;2022-12-24T13:49:52;10.10;99.90
14252;DHT22;7210;51.502;10.722;2022-12-24T13:52:23;10.20;99.90
14252;DHT22;7210;51.502;10.722;2022-12-24T13:55:11;10.20;99.90
14252;DHT22;7210;51.502;10.722;2022-12-24T13:57:42;10.30;99.90
14252;DHT22;7210;51.502;10.722;2022-12-24T14:03:26;10.30;99.90
14252;DHT22;7210;51.502;10.722;2022-12-24T14:06:01;10.20;99.90
14252;DHT22;7210;51.502;10.722;2022-12-24T14:08:35;10.30;99.90
14252;DHT22;7210;51.502;10.722;2022-12-24T14:11:11;10.20;99.90
14252;DHT22;7210;51.502;10.722;2022-12-24T14:14:10;10.10;99.90
14252;DHT22;7210;51.502;10.722;2022-12-24T14:16:52;10.10;99.90
14252;DHT22;7210;51.502;10.722;2022-12-24T14:19:23;10.00;99.90
14252;DHT22;7210;51.502;10.722;2022-12-24T14:21:58;10.00;99.90
14252;DHT22;7210;51.502;10.722;2022-12-24T14:24:36;9.90;99.90
14252;DHT22;7210;51.502;10.722;2022-12-24T14:27:12;9.90;99.90
14252;DHT22;7210;51.502;10.722;2022-12-24T14:29:47;9.80;99.90
14252;DHT22;7210;51.502;10.722;2022-12-24T14:32:33;9.80;99.90
14252;DHT22;7210;51.502;10.722;2022-12-24T14:35:06;9.70;99.90
14252;DHT22;7210;51.502;10.722;2022-12-24T14:37:37;9.70;99.90
14252;DHT22;7210;51.502;10.722;2022-12-24T14:40:07;9.70;99.90
14252;DHT22;7210;51.502;10.722;2022-12-24T14:42:40;9.60;99.90
14252;DHT22;7210;51.502;10.722;2022-12-24T14:45:21;9.60;99.90
14252;DHT22;7210;51.502;10.722;2022-12-24T14:47:58;9.50;99.90
14252;DHT22;7210;51.502;10.722;2022-12-24T14:50:44;9.50;99.90
14252;DHT22;7210;51.502;10.722;2022-12-24T14:53:27;9.50;99.90
14252;DHT22;7210;51.502;10.722;2022-12-24T14:55:57;9.30;99.90
14252;DHT22;7210;51.502;10.722;2022-12-24T14:58:26;9.20;99.90
14252;DHT22;7210;51.502;10.722;2022-12-24T15:00:59;9.20;99.90
14252;DHT22;7210;51.502;10.722;2022-12-24T15:03:30;9.10;99.90
14252;DHT22;7210;51.502;10.722;2022-12-24T15:05:59;9.10;99.90
14252;DHT22;7210;51.502;10.722;2022-12-24T15:08:31;8.90;99.90
14252;DHT22;7210;51.502;10.722;2022-12-24T15:11:01;8.80;99.90
14252;DHT22;7210;51.502;10.722;2022-12-24T15:13:32;8.70;99.90
14252;DHT22;7210;51.502;10.722;2022-12-24T15:16:01;8.60;99.90
14252;DHT22;7210;51.502;10.722;2022-12-24T15:18:31;8.50;99.90
14252;DHT22;7210;51.502;10.722;2022-12-24T15:21:02;8.40;99.90
14252;DHT22;7210;51.502;10.722;2022-12-24T15:23:33;8.40;99.90
14252;DHT22;7210;51.502;10.722;2022-12-24T15:26:25;8.30;99.90
14252;DHT22;7210;51.502;10.722;2022-12-24T15:28:54;8.20;99.90
14252;DHT22;7210;51.502;10.722;2022-12-24T15:31:23;8.20;99.90
14252;DHT22;7210;51.502;10.722;2022-12-24T15:33:53;8.10;99.90
14252;DHT22;7210;51.502;10.722;2022-12-24T15:36:28;8.00;99.90
14252;DHT22;7210;51.502;10.722;2022-12-24T15:39:07;8.00;99.90
14252;DHT22;7210;51.502;10.722;2022-12-24T15:41:42;7.90;99.90
14252;DHT22;7210;51.502;10.722;2022-12-24T15:44:26;7.90;99.90
14252;DHT22;7210;51.502;10.722;2022-12-24T15:46:58;7.70;99.90
14252;DHT22;7210;51.502;10.722;2022-12-24T15:49:30;7.60;99.90
14252;DHT22;7210;51.502;10.722;2022-12-24T15:52:03;7.60;99.90
14252;DHT22;7210;51.502;10.722;2022-12-24T15:54:33;7.50;99.90
14252;DHT22;7210;51.502;10.722;2022-12-24T15:57:11;7.40;99.90
14252;DHT22;7210;51.502;10.722;2022-12-24T15:59:39;7.30;99.90
14252;DHT22;7210;51.502;10.722;2022-12-24T16:02:32;7.20;99.90
14252;DHT22;7210;51.502;10.722;2022-12-24T16:05:26;7.20;99.90
14252;DHT22;7210;51.502;10.722;2022-12-24T16:08:01;7.10;99.90
14252;DHT22;7210;51.502;10.722;2022-12-24T16:10:43;6.90;99.90
14252;DHT22;7210;51.502;10.722;2022-12-24T16:13:13;6.80;99.90
14252;DHT22;7210;51.502;10.722;2022-12-24T16:15:47;6.70;99.90
14252;DHT22;7210;51.502;10.722;2022-12-24T16:18:20;6.60;99.90
14252;DHT22;7210;51.502;10.722;2022-12-24T16:20:51;6.50;99.90
14252;DHT22;7210;51.502;10.722;2022-12-24T16:23:23;6.40;99.90
14252;DHT22;7210;51.502;10.722;2022-12-24T16:25:53;6.40;99.90
14252;DHT22;7210;51.502;10.722;2022-12-24T16:28:21;6.30;99.90
14252;DHT22;7210;51.502;10.722;2022-12-24T16:30:48;6.20;99.90
14252;DHT22;7210;51.502;10.722;2022-12-24T16:33:17;6.10;99.90
14252;DHT22;7210;51.502;10.722;2022-12-24T16:35:46;6.00;99.90
14252;DHT22;7210;51.502;10.722;2022-12-24T16:38:14;6.00;99.90
14252;DHT22;7210;51.502;10.722;2022-12-24T16:40:42;6.00;99.90
14252;DHT22;7210;51.502;10.722;2022-12-24T16:43:10;5.90;99.90
14252;DHT22;7210;51.502;10.722;2022-12-24T16:46:00;5.70;99.90
14252;DHT22;7210;51.502;10.722;2022-12-24T16:48:31;5.60;99.90